Time;durP1;ratioP1;P1;durP2;ratioP2;P2;SDS_P1;SDS_P2;PMS_P1;PMS_P2;Temp;Humidity;BMP_temperature;BMP_pressure;BME280_temperature;BME280_humidity;BME280_pressure;Samples;Min_cycle;Max_cycle;Signal;HPM_P1;HPM_P2
2023/12/08 00:01:20;;;;;;;24.10;14.98;;;4.60;99.90;;;;;;5009522;28;20037;-72
2023/12/08 00:03:46;;;;;;;24.00;13.70;;;4.60;99.90;;;;;;5007253;28;20033;-73
2023/12/08 00:06:12;;;;;;;23.20;13.50;;;4.60;99.90;;;;;;5010269;28;20022;-73
2023/12/08 00:08:38;;;;;;;23.52;13.15;;;4.60;99.90;;;;;;4992661;28;20026;-72
2023/12/08 00:11:05;;;;;;;24.48;13.98;;;4.70;99.90;;;;;;5010691;28;20032;-72
2023/12/08 00:13:31;;;;;;;25.95;14.98;;;4.70;99.90;;;;;;5008690;28;20021;-72
2023/12/08 00:15:56;;;;;;;26.42;13.50;;;4.80;99.90;;;;;;5008528;28;20033;-72
2023/12/08 00:18:22;;;;;;;26.45;14.95;;;4.80;99.90;;;;;;5009744;28;20030;-73
2023/12/08 00:20:48;;;;;;;24.90;14.30;;;4.70;99.90;;;;;;5010959;28;20033;-73
2023/12/08 00:23:14;;;;;;;26.23;14.50;;;4.70;99.90;;;;;;5007504;28;20032;-72
2023/12/08 00:25:40;;;;;;;26.15;14.20;;;4.70;99.90;;;;;;5011703;28;20117;-73
2023/12/08 00:28:06;;;;;;;25.45;13.75;;;4.70;99.90;;;;;;5007364;28;20045;-73
2023/12/08 00:30:32;;;;;;;28.02;14.65;;;4.80;99.90;;;;;;5010443;28;20057;-72
2023/12/08 00:32:58;;;;;;;25.33;14.68;;;4.70;99.90;;;;;;5007954;28;20501;-72
2023/12/08 00:35:24;;;;;;;25.08;14.35;;;4.80;99.90;;;;;;5010259;28;20395;-72
2023/12/08 00:37:49;;;;;;;24.65;13.52;;;4.70;99.90;;;;;;5006831;28;20033;-73
2023/12/08 00:40:16;;;;;;;23.70;13.02;;;4.70;99.90;;;;;;5010539;28;20025;-72
2023/12/08 00:42:42;;;;;;;27.25;14.30;;;4.80;99.90;;;;;;5008006;28;20097;-72
2023/12/08 00:45:08;;;;;;;26.50;14.88;;;4.80;99.90;;;;;;5008928;28;20100;-73
2023/12/08 00:47:34;;;;;;;26.48;14.32;;;4.70;99.90;;;;;;5013106;28;20026;-73
2023/12/08 00:49:59;;;;;;;22.17;13.60;;;4.80;99.90;;;;;;4990635;28;20507;-73
2023/12/08 00:52:25;;;;;;;27.83;14.80;;;4.80;99.90;;;;;;5013838;28;20014;-73
2023/12/08 00:54:51;;;;;;;28.27;14.98;;;4.70;99.90;;;;;;5013797;28;20033;-73
2023/12/08 00:57:17;;;;;;;27.02;15.20;;;4.70;99.90;;;;;;5013833;28;20050;-72
2023/12/08 00:59:42;;;;;;;26.25;14.25;;;4.70;99.90;;;;;;5011433;28;20159;-73
2023/12/08 01:02:08;;;;;;;23.05;13.80;;;4.80;99.90;;;;;;5013590;28;20030;-73
2023/12/08 01:04:34;;;;;;;23.33;14.82;;;4.80;99.90;;;;;;5013810;28;20036;-72
2023/12/08 01:07:00;;;;;;;25.17;13.73;;;4.80;99.90;;;;;;5012815;28;20375;-72
2023/12/08 01:09:26;;;;;;;23.75;14.65;;;4.80;99.90;;;;;;5009710;28;20034;-73
2023/12/08 01:11:52;;;;;;;24.75;14.10;;;4.80;99.90;;;;;;5013265;28;20022;-73
2023/12/08 01:14:18;;;;;;;25.50;14.75;;;4.80;99.90;;;;;;5013338;28;20044;-73
2023/12/08 01:16:43;;;;;;;24.83;14.70;;;4.90;99.90;;;;;;5012617;28;20028;-72
2023/12/08 01:19:11;;;;;;;28.90;15.75;;;4.80;99.90;;;;;;5012680;28;20550;-72
2023/12/08 01:21:37;;;;;;;25.98;14.50;;;4.80;99.90;;;;;;5010344;28;20084;-73
2023/12/08 01:24:04;;;;;;;25.77;14.75;;;4.80;99.90;;;;;;5013600;28;20099;-72
2023/12/08 01:26:30;;;;;;;28.48;14.57;;;4.80;99.90;;;;;;5012219;28;20113;-72
2023/12/08 01:28:56;;;;;;;28.27;14.50;;;4.80;99.90;;;;;;5012589;28;20109;-72
2023/12/08 01:31:21;;;;;;;22.70;13.98;;;4.90;99.90;;;;;;5012909;28;20538;-72
2023/12/08 01:33:47;;;;;;;24.25;14.77;;;4.90;99.90;;;;;;4996405;28;21924;-72
2023/12/08 01:36:14;;;;;;;23.95;14.15;;;4.80;99.90;;;;;;5009766;28;20100;-72
2023/12/08 01:38:44;;;;;;;28.30;15.48;;;4.80;99.90;;;;;;5013027;28;20022;-73
2023/12/08 01:41:15;;;;;;;27.17;15.50;;;4.90;99.90;;;;;;5010149;28;20018;-73
2023/12/08 01:43:45;;;;;;;26.33;15.18;;;4.90;99.90;;;;;;5012835;28;20449;-72
2023/12/08 01:46:14;;;;;;;27.13;15.60;;;4.90;99.90;;;;;;5012412;28;20463;-73
2023/12/08 01:48:41;;;;;;;24.92;13.85;;;4.90;99.90;;;;;;5012764;28;20018;-72
2023/12/08 01:51:08;;;;;;;28.75;15.65;;;4.90;99.90;;;;;;5011280;28;20034;-73
2023/12/08 01:53:33;;;;;;;29.13;16.42;;;4.90;99.90;;;;;;5009605;28;20022;-73
2023/12/08 01:55:59;;;;;;;31.98;16.75;;;4.90;99.90;;;;;;5011193;28;20099;-73
2023/12/08 01:58:26;;;;;;;34.70;16.73;;;4.80;99.90;;;;;;5007726;28;20093;-73
2023/12/08 02:00:53;;;;;;;29.58;17.98;;;5.00;99.90;;;;;;5013369;28;20539;-73
2023/12/08 02:03:21;;;;;;;31.23;16.95;;;4.90;99.90;;;;;;5011269;28;20026;-73
2023/12/08 02:05:50;;;;;;;32.65;17.45;;;4.80;99.90;;;;;;4991468;28;20113;-73
2023/12/08 02:08:20;;;;;;;32.95;18.02;;;4.80;99.90;;;;;;4995046;28;20025;-73
2023/12/08 02:10:47;;;;;;;30.77;17.13;;;4.90;99.90;;;;;;5010501;28;20034;-73
2023/12/08 02:13:16;;;;;;;35.72;18.98;;;5.00;99.90;;;;;;5011948;28;20026;-73
2023/12/08 02:15:45;;;;;;;34.25;20.05;;;5.00;99.90;;;;;;5011498;28;20014;-73
2023/12/08 02:18:13;;;;;;;36.63;19.70;;;4.90;99.90;;;;;;5007112;28;20442;-73
2023/12/08 02:20:39;;;;;;;38.78;19.58;;;4.90;99.90;;;;;;4994798;28;20018;-73
2023/12/08 02:23:06;;;;;;;33.92;18.40;;;5.00;99.90;;;;;;5011442;28;20034;-73
2023/12/08 02:25:35;;;;;;;32.50;16.92;;;5.10;99.90;;;;;;5008527;28;20386;-73
2023/12/08 02:28:04;;;;;;;33.15;18.08;;;5.20;99.90;;;;;;5010790;28;20033;-73
2023/12/08 02:30:30;;;;;;;38.30;20.20;;;5.10;99.90;;;;;;4988665;28;20045;-73
2023/12/08 02:32:55;;;;;;;36.05;19.25;;;5.10;99.90;;;;;;5012628;28;20360;-73
2023/12/08 02:35:23;;;;;;;36.60;18.83;;;5.10;99.90;;;;;;5009221;28;20026;-73
2023/12/08 02:37:51;;;;;;;37.45;19.73;;;5.10;99.90;;;;;;5011764;28;20049;-73
2023/12/08 02:40:18;;;;;;;37.08;20.33;;;5.20;99.90;;;;;;5009473;28;20030;-73
2023/12/08 02:42:43;;;;;;;39.42;19.80;;;5.10;99.90;;;;;;5012246;28;20018;-73
2023/12/08 02:45:09;;;;;;;38.33;19.33;;;5.10;99.90;;;;;;5009496;28;20026;-73
2023/12/08 02:47:35;;;;;;;40.85;20.80;;;5.10;99.90;;;;;;5011311;28;20198;-73
2023/12/08 02:50:01;;;;;;;40.08;20.30;;;5.10;99.90;;;;;;5008618;28;20037;-73
2023/12/08 02:52:27;;;;;;;36.47;19.60;;;5.10;99.90;;;;;;5010143;28;20034;-73
2023/12/08 02:54:52;;;;;;;38.35;20.15;;;5.20;99.90;;;;;;5011508;28;20535;-73
2023/12/08 02:57:18;;;;;;;40.33;20.05;;;5.30;99.90;;;;;;5008260;28;20552;-73
2023/12/08 02:59:43;;;;;;;39.50;20.50;;;5.30;99.90;;;;;;5011444;28;20441;-73
2023/12/08 03:02:09;;;;;;;40.45;21.00;;;5.30;99.90;;;;;;5010509;28;20022;-73
2023/12/08 03:04:35;;;;;;;36.38;19.77;;;5.30;99.90;;;;;;5011589;28;20524;-73
2023/12/08 03:07:01;;;;;;;39.28;21.38;;;5.20;99.90;;;;;;5010759;28;20026;-73
2023/12/08 03:09:26;;;;;;;42.63;21.35;;;5.20;99.90;;;;;;4993336;28;20018;-73
2023/12/08 03:11:52;;;;;;;40.78;20.52;;;5.20;99.90;;;;;;5008368;28;20430;-73
2023/12/08 03:14:18;;;;;;;42.40;21.58;;;5.20;99.90;;;;;;5011365;28;20466;-74
2023/12/08 03:16:46;;;;;;;40.63;21.08;;;5.20;99.90;;;;;;5008870;28;20041;-73
2023/12/08 03:19:12;;;;;;;39.35;22.02;;;5.20;99.90;;;;;;5009188;28;20029;-73
2023/12/08 03:21:37;;;;;;;41.33;21.67;;;5.20;99.90;;;;;;5010539;28;20138;-73
2023/12/08 03:24:03;;;;;;;35.70;19.17;;;5.20;99.90;;;;;;5011023;28;20482;-73
2023/12/08 03:26:29;;;;;;;39.83;21.02;;;5.00;99.90;;;;;;5006833;28;20022;-73
2023/12/08 03:28:55;;;;;;;40.08;20.52;;;5.00;99.90;;;;;;5010825;28;20038;-73
2023/12/08 03:31:25;;;;;;;43.67;21.10;;;5.00;99.90;;;;;;5010664;28;20029;-73
2023/12/08 03:33:51;;;;;;;43.97;22.80;;;5.10;99.90;;;;;;5011872;28;20057;-72
2023/12/08 03:36:17;;;;;;;42.13;21.50;;;5.00;99.90;;;;;;4994281;28;20061;-74
2023/12/08 03:38:42;;;;;;;40.80;21.45;;;5.00;99.90;;;;;;5009471;28;20018;-73
2023/12/08 03:41:09;;;;;;;45.42;22.13;;;5.10;99.90;;;;;;5009720;28;20033;-72
2023/12/08 03:43:35;;;;;;;44.75;22.90;;;5.20;99.90;;;;;;5010769;28;20065;-73
2023/12/08 03:46:00;;;;;;;48.72;23.35;;;5.10;99.90;;;;;;4989538;28;20584;-73
2023/12/08 03:48:27;;;;;;;48.67;23.45;;;5.00;99.90;;;;;;5009190;28;20560;-73
2023/12/08 03:50:53;;;;;;;37.75;21.10;;;5.10;99.90;;;;;;5010476;28;20041;-73
2023/12/08 03:53:18;;;;;;;45.08;22.73;;;5.10;99.90;;;;;;5007457;28;20144;-73
2023/12/08 03:55:44;;;;;;;44.67;23.25;;;5.10;99.90;;;;;;5011202;28;20052;-73
2023/12/08 03:58:09;;;;;;;42.05;21.52;;;5.00;99.90;;;;;;5010683;28;20033;-72
2023/12/08 04:00:35;;;;;;;46.78;21.42;;;5.00;99.90;;;;;;5009354;28;20034;-73
2023/12/08 04:03:01;;;;;;;47.90;24.13;;;5.10;99.90;;;;;;5008750;28;20022;-73
2023/12/08 04:05:27;;;;;;;43.40;21.27;;;5.10;99.90;;;;;;5009675;28;20025;-72
2023/12/08 04:07:52;;;;;;;44.13;22.13;;;5.00;99.90;;;;;;5008522;28;20497;-72
2023/12/08 04:10:18;;;;;;;46.38;22.25;;;5.00;99.90;;;;;;5009105;28;20112;-72
2023/12/08 04:12:43;;;;;;;47.38;23.17;;;5.00;99.90;;;;;;4990794;28;20459;-73
2023/12/08 04:15:09;;;;;;;44.58;23.48;;;5.00;99.90;;;;;;5008086;28;20471;-72
2023/12/08 04:17:35;;;;;;;47.00;24.42;;;5.00;99.90;;;;;;4991117;28;20933;-72
2023/12/08 04:20:01;;;;;;;45.47;22.50;;;4.90;99.90;;;;;;5010491;28;20033;-72
2023/12/08 04:22:27;;;;;;;43.63;23.08;;;5.00;99.90;;;;;;5011467;28;20607;-72
2023/12/08 04:24:52;;;;;;;52.08;24.50;;;5.00;99.90;;;;;;5014406;28;20458;-72
2023/12/08 04:27:18;;;;;;;46.92;24.58;;;4.90;99.90;;;;;;5013119;28;20383;-72
2023/12/08 04:29:44;;;;;;;47.75;23.63;;;5.00;99.90;;;;;;5012296;28;20128;-73
2023/12/08 04:32:10;;;;;;;42.40;22.25;;;5.00;99.90;;;;;;5015740;28;20093;-72
2023/12/08 04:34:35;;;;;;;44.88;22.60;;;4.90;99.90;;;;;;5011220;28;20437;-72
2023/12/08 04:37:01;;;;;;;46.30;24.63;;;5.00;99.90;;;;;;5012731;28;20051;-72
2023/12/08 04:39:26;;;;;;;49.00;24.02;;;5.00;99.90;;;;;;5011079;28;20411;-72
2023/12/08 04:41:52;;;;;;;43.83;22.08;;;5.00;99.90;;;;;;5014234;28;20029;-72
2023/12/08 04:44:18;;;;;;;49.75;25.10;;;4.90;99.90;;;;;;5013221;28;20374;-72
2023/12/08 04:46:43;;;;;;;60.47;26.65;;;5.00;99.90;;;;;;5011126;28;20494;-72
2023/12/08 04:49:09;;;;;;;52.22;24.05;;;5.00;99.90;;;;;;5013681;28;20084;-72
2023/12/08 04:51:35;;;;;;;48.70;24.70;;;5.00;99.90;;;;;;5012036;28;20589;-72
2023/12/08 04:54:01;;;;;;;52.08;24.77;;;4.90;99.90;;;;;;5012993;28;20025;-72
2023/12/08 04:56:27;;;;;;;43.42;22.85;;;5.00;99.90;;;;;;5011853;28;20030;-72
2023/12/08 04:58:53;;;;;;;44.10;22.20;;;5.10;99.90;;;;;;5013534;28;20053;-72
2023/12/08 05:01:18;;;;;;;49.83;24.45;;;5.10;99.90;;;;;;4994356;28;20474;-72
2023/12/08 05:03:44;;;;;;;51.20;25.02;;;5.10;99.90;;;;;;5012332;28;20688;-72
2023/12/08 05:06:10;;;;;;;50.20;23.27;;;5.10;99.90;;;;;;5013546;28;20390;-72
2023/12/08 05:08:36;;;;;;;52.33;24.60;;;5.10;99.90;;;;;;5010990;28;20030;-73
2023/12/08 05:11:02;;;;;;;55.08;25.23;;;5.10;99.90;;;;;;5013664;28;20076;-72
2023/12/08 05:13:27;;;;;;;60.10;27.10;;;5.10;99.90;;;;;;5013574;28;20022;-72
2023/12/08 05:15:53;;;;;;;55.25;25.70;;;5.20;99.90;;;;;;5009035;28;20041;-72
2023/12/08 05:18:18;;;;;;;56.92;24.67;;;5.20;99.90;;;;;;5011708;28;20022;-72
2023/12/08 05:20:44;;;;;;;54.17;24.75;;;5.10;99.90;;;;;;5010775;28;20603;-72
2023/12/08 05:23:10;;;;;;;53.90;26.00;;;5.10;99.90;;;;;;5012708;28;20434;-72
2023/12/08 05:25:38;;;;;;;50.20;25.00;;;5.20;99.90;;;;;;5011476;28;20026;-72
2023/12/08 05:28:04;;;;;;;58.47;25.83;;;5.30;99.90;;;;;;4995939;28;20088;-72
2023/12/08 05:30:30;;;;;;;53.05;26.13;;;5.30;99.90;;;;;;5014249;28;20475;-72
2023/12/08 05:32:55;;;;;;;54.40;25.27;;;5.20;99.90;;;;;;5010758;28;20033;-72
2023/12/08 05:35:22;;;;;;;57.80;26.73;;;5.30;99.90;;;;;;5012978;28;20378;-72
2023/12/08 05:37:49;;;;;;;58.75;26.17;;;5.20;99.90;;;;;;5013369;28;20076;-72
2023/12/08 05:40:15;;;;;;;60.78;27.02;;;5.30;99.90;;;;;;5012367;28;20092;-72
2023/12/08 05:42:42;;;;;;;62.80;28.15;;;5.30;99.90;;;;;;5010875;28;20528;-72
2023/12/08 05:45:08;;;;;;;56.45;26.40;;;5.30;99.90;;;;;;5013041;28;20030;-72
2023/12/08 05:47:34;;;;;;;57.65;26.27;;;5.30;99.90;;;;;;4996650;28;20022;-72
2023/12/08 05:49:59;;;;;;;54.20;25.63;;;5.30;99.90;;;;;;5010593;28;20446;-72
2023/12/08 05:52:25;;;;;;;54.10;27.13;;;5.40;99.90;;;;;;5012520;28;20030;-72
2023/12/08 05:54:51;;;;;;;56.28;25.70;;;5.40;99.90;;;;;;5011015;28;20688;-72
2023/12/08 05:57:16;;;;;;;71.97;28.63;;;5.40;99.90;;;;;;5011611;28;20449;-72
2023/12/08 05:59:42;;;;;;;60.95;26.60;;;5.40;99.90;;;;;;5012610;28;20052;-72
2023/12/08 06:02:08;;;;;;;58.17;27.48;;;5.30;99.90;;;;;;5009470;28;20026;-72
2023/12/08 06:04:33;;;;;;;58.83;27.50;;;5.50;99.90;;;;;;5012354;28;20463;-72
2023/12/08 06:06:59;;;;;;;60.20;28.48;;;5.50;99.90;;;;;;5008733;28;20108;-72
2023/12/08 06:09:25;;;;;;;58.47;27.92;;;5.50;99.90;;;;;;5012684;28;20116;-72
2023/12/08 06:11:51;;;;;;;65.72;29.88;;;5.40;99.90;;;;;;5010810;28;20030;-72
2023/12/08 06:14:17;;;;;;;67.50;30.50;;;5.50;99.90;;;;;;5011722;28;20018;-72
2023/12/08 06:16:43;;;;;;;61.33;29.98;;;5.50;99.90;;;;;;5011925;28;20053;-72
2023/12/08 06:19:09;;;;;;;60.40;28.95;;;5.50;99.90;;;;;;5010368;28;20463;-73
2023/12/08 06:21:35;;;;;;;59.33;27.80;;;5.50;99.90;;;;;;5010991;28;20545;-72
2023/12/08 06:24:00;;;;;;;63.65;27.65;;;5.60;99.90;;;;;;4994274;28;20124;-72
2023/12/08 06:26:26;;;;;;;62.15;27.20;;;5.60;99.90;;;;;;5011981;28;20483;-72
2023/12/08 06:28:52;;;;;;;68.30;28.02;;;5.50;99.90;;;;;;5009405;28;20406;-72
2023/12/08 06:31:18;;;;;;;63.92;27.08;;;5.50;99.90;;;;;;5011297;28;20043;-72
2023/12/08 06:33:44;;;;;;;56.67;27.77;;;5.50;99.90;;;;;;5009639;28;20601;-72
2023/12/08 06:36:10;;;;;;;57.88;27.40;;;5.50;99.90;;;;;;5011846;28;20029;-72
2023/12/08 06:38:39;;;;;;;71.95;29.48;;;5.50;99.90;;;;;;5008902;28;20053;-71
2023/12/08 06:41:05;;;;;;;59.85;27.58;;;5.50;99.90;;;;;;5011908;28;20034;-72
2023/12/08 06:43:32;;;;;;;79.88;30.60;;;5.60;99.90;;;;;;5009267;28;20026;-72
2023/12/08 06:45:57;;;;;;;69.00;30.27;;;5.60;99.90;;;;;;5011927;28;20084;-72
2023/12/08 06:48:23;;;;;;;59.78;27.58;;;5.50;99.90;;;;;;5011952;28;20502;-72
2023/12/08 06:50:51;;;;;;;53.00;26.30;;;5.60;99.90;;;;;;5008629;28;20029;-72
2023/12/08 06:53:17;;;;;;;79.47;28.08;;;5.70;99.90;;;;;;5010983;28;20018;-72
2023/12/08 06:55:42;;;;;;;65.53;27.60;;;5.60;99.90;;;;;;5009518;28;20108;-72
2023/12/08 06:58:08;;;;;;;79.78;33.17;;;5.50;99.90;;;;;;5008816;28;20028;-73
2023/12/08 07:00:34;;;;;;;66.65;30.27;;;5.70;99.90;;;;;;5008863;28;20060;-73
2023/12/08 07:03:00;;;;;;;79.40;32.50;;;5.70;99.90;;;;;;5012297;28;20060;-72
2023/12/08 07:05:25;;;;;;;95.13;33.88;;;5.70;99.90;;;;;;5010224;28;20044;-72
2023/12/08 07:07:51;;;;;;;73.10;29.58;;;5.70;99.90;;;;;;5010288;28;20072;-72
2023/12/08 07:10:17;;;;;;;69.65;28.75;;;5.80;99.90;;;;;;5011298;28;20037;-72
2023/12/08 07:12:43;;;;;;;66.43;28.23;;;5.80;99.90;;;;;;5010651;28;20502;-72
2023/12/08 07:15:10;;;;;;;64.90;27.90;;;5.80;99.90;;;;;;5009443;28;20360;-72
2023/12/08 07:17:37;;;;;;;67.05;28.83;;;5.80;99.90;;;;;;5010138;28;20025;-72
2023/12/08 07:20:06;;;;;;;74.68;31.23;;;5.90;99.90;;;;;;5009116;28;20040;-72
2023/12/08 07:22:32;;;;;;;75.32;30.55;;;5.90;99.90;;;;;;5009988;28;20113;-72
2023/12/08 07:24:59;;;;;;;85.38;32.92;;;5.90;99.90;;;;;;5008949;28;20441;-72
2023/12/08 07:27:24;;;;;;;72.60;29.73;;;6.00;99.90;;;;;;4994068;28;20018;-71
2023/12/08 07:29:50;;;;;;;73.60;31.50;;;6.00;99.90;;;;;;5010261;28;20513;-72
2023/12/08 07:32:16;;;;;;;82.60;33.20;;;6.10;99.90;;;;;;5010008;28;20026;-72
2023/12/08 07:34:42;;;;;;;73.20;30.75;;;6.10;99.90;;;;;;5012783;28;20029;-72
2023/12/08 07:37:07;;;;;;;91.57;33.30;;;6.10;99.90;;;;;;5009895;28;20026;-71
2023/12/08 07:39:33;;;;;;;81.40;31.05;;;6.10;99.90;;;;;;5011478;28;20383;-72
2023/12/08 07:41:58;;;;;;;88.78;31.00;;;6.10;99.90;;;;;;5011636;28;20383;-72
2023/12/08 07:44:24;;;;;;;79.43;33.60;;;6.10;99.90;;;;;;5008252;28;20490;-72
2023/12/08 07:46:50;;;;;;;109.80;36.45;;;6.20;99.90;;;;;;5010381;28;20032;-71
2023/12/08 07:49:16;;;;;;;75.97;30.70;;;6.20;99.90;;;;;;5008805;28;20057;-72
2023/12/08 07:51:42;;;;;;;80.72;30.40;;;6.20;99.90;;;;;;5010620;28;20041;-71
2023/12/08 07:54:07;;;;;;;79.72;31.70;;;6.30;99.90;;;;;;5009179;28;20018;-71
2023/12/08 07:56:33;;;;;;;76.35;29.10;;;6.30;99.90;;;;;;5008845;28;20039;-72
2023/12/08 07:59:00;;;;;;;95.32;33.65;;;6.30;99.90;;;;;;5010212;28;20053;-72
2023/12/08 08:01:26;;;;;;;80.47;28.52;;;6.30;99.90;;;;;;5008139;28;20033;-72
2023/12/08 08:03:51;;;;;;;106.03;35.03;;;6.30;99.90;;;;;;4990735;28;20433;-72
2023/12/08 08:06:17;;;;;;;100.85;35.15;;;6.40;99.90;;;;;;4991729;28;20061;-71
2023/12/08 08:08:43;;;;;;;102.25;34.17;;;6.40;99.90;;;;;;5010166;28;20025;-71
2023/12/08 08:11:09;;;;;;;109.50;36.45;;;6.40;99.90;;;;;;5005896;28;20128;-72
2023/12/08 08:13:35;;;;;;;52.70;21.33;;;6.40;99.90;;;;;;4992152;28;20021;-74
2023/12/08 08:16:01;;;;;;;93.22;34.10;;;6.50;99.90;;;;;;5008291;28;20025;-71
2023/12/08 08:18:29;;;;;;;101.97;34.33;;;6.60;99.90;;;;;;5010955;28;20021;-72
2023/12/08 08:20:55;;;;;;;95.05;32.47;;;6.60;99.90;;;;;;5008739;28;20030;-72
2023/12/08 08:23:21;;;;;;;103.38;34.83;;;6.60;99.90;;;;;;5008316;28;20024;-72
2023/12/08 08:25:47;;;;;;;84.40;31.98;;;6.60;99.90;;;;;;5010122;28;20116;-72
2023/12/08 08:28:13;;;;;;;90.70;32.80;;;6.60;99.90;;;;;;5006789;28;20029;-71
2023/12/08 08:30:42;;;;;;;106.68;33.90;;;6.60;99.90;;;;;;5009123;28;20514;-72
2023/12/08 08:33:07;;;;;;;97.97;33.78;;;6.60;99.90;;;;;;5007271;28;20021;-72
2023/12/08 08:35:33;;;;;;;94.30;31.60;;;6.70;99.90;;;;;;5004786;28;20429;-72
2023/12/08 08:37:59;;;;;;;93.80;32.97;;;6.70;99.90;;;;;;5005962;28;20105;-68
2023/12/08 08:40:25;;;;;;;126.38;37.50;;;6.70;99.90;;;;;;5009711;28;20022;-72
2023/12/08 08:42:51;;;;;;;114.05;36.17;;;6.70;99.90;;;;;;5009934;28;20025;-72
2023/12/08 08:45:19;;;;;;;127.43;37.13;;;6.80;99.90;;;;;;5008946;28;20034;-71
2023/12/08 08:47:45;;;;;;;109.10;34.70;;;6.80;99.90;;;;;;5008893;28;20078;-72
2023/12/08 08:50:11;;;;;;;118.47;36.85;;;6.80;99.90;;;;;;5006068;28;20045;-71
2023/12/08 08:52:37;;;;;;;114.72;37.15;;;6.80;99.90;;;;;;5010956;28;20022;-70
2023/12/08 08:55:04;;;;;;;130.32;36.55;;;6.90;99.90;;;;;;5007823;28;20516;-69
2023/12/08 08:57:30;;;;;;;123.53;36.13;;;6.90;99.90;;;;;;5006194;28;20025;-70
2023/12/08 08:59:56;;;;;;;146.43;39.17;;;6.90;99.90;;;;;;5010123;28;20109;-71
2023/12/08 09:02:22;;;;;;;141.40;39.10;;;7.00;99.90;;;;;;5007895;28;20097;-70
2023/12/08 09:04:47;;;;;;;132.15;37.10;;;7.00;99.90;;;;;;5008439;28;20037;-70
2023/12/08 09:07:13;;;;;;;137.32;40.13;;;7.00;99.90;;;;;;5008153;28;21187;-70
2023/12/08 09:09:39;;;;;;;139.65;37.95;;;7.00;99.90;;;;;;5011598;28;20041;-70
2023/12/08 09:12:05;;;;;;;113.75;36.00;;;7.10;99.90;;;;;;5012887;28;20160;-69
2023/12/08 09:14:33;;;;;;;120.45;35.55;;;7.10;99.90;;;;;;4995590;28;20120;-70
2023/12/08 09:17:02;;;;;;;128.82;37.10;;;7.20;99.90;;;;;;5013232;28;20021;-70
2023/12/08 09:19:28;;;;;;;134.68;36.63;;;7.20;99.90;;;;;;5011952;28;20621;-70
2023/12/08 09:21:54;;;;;;;136.35;36.53;;;7.10;99.90;;;;;;5009660;28;20093;-70
2023/12/08 09:24:20;;;;;;;145.43;37.35;;;7.20;99.90;;;;;;5012711;28;20034;-70
2023/12/08 09:26:46;;;;;;;133.35;35.78;;;7.30;99.90;;;;;;5010038;28;20021;-70
2023/12/08 09:29:12;;;;;;;125.18;36.53;;;7.30;99.90;;;;;;5011817;28;20479;-70
2023/12/08 09:31:37;;;;;;;131.23;36.00;;;7.30;99.90;;;;;;5011644;28;20426;-70
2023/12/08 09:34:03;;;;;;;143.73;39.25;;;7.40;99.90;;;;;;5012206;28;20380;-70
2023/12/08 09:36:29;;;;;;;148.30;39.95;;;7.40;99.90;;;;;;4988491;28;20053;-72
2023/12/08 09:38:55;;;;;;;121.82;35.60;;;7.50;99.90;;;;;;5013336;28;20026;-72
2023/12/08 09:41:21;;;;;;;138.77;36.80;;;7.50;99.90;;;;;;5012404;28;20542;-72
2023/12/08 09:43:59;;;;;;;126.35;36.70;;;7.50;99.90;;;;;;5012143;28;20034;-72
2023/12/08 09:46:25;;;;;;;115.10;35.40;;;7.50;99.90;;;;;;5010252;28;20309;-74
2023/12/08 09:48:54;;;;;;;138.35;35.83;;;7.50;99.90;;;;;;5012104;28;20026;-73
2023/12/08 09:51:20;;;;;;;127.03;35.92;;;7.60;99.90;;;;;;4991675;28;20823;-73
2023/12/08 09:53:47;;;;;;;121.82;35.72;;;7.60;99.90;;;;;;5013314;28;20044;-72
2023/12/08 09:56:14;;;;;;;123.88;33.55;;;7.60;99.90;;;;;;5012371;28;20076;-80
2023/12/08 09:58:40;;;;;;;132.57;35.38;;;7.70;99.90;;;;;;5012066;28;20038;-70
2023/12/08 10:01:09;;;;;;;132.45;35.30;;;7.80;99.90;;;;;;5012255;28;20446;-72
2023/12/08 10:03:35;;;;;;;123.97;33.65;;;7.80;99.90;;;;;;5010799;28;20042;-74
2023/12/08 10:06:01;;;;;;;139.32;35.13;;;7.90;99.90;;;;;;5011938;28;20024;-72
2023/12/08 10:08:30;;;;;;;133.85;36.72;;;7.90;99.90;;;;;;5012276;28;20056;-71
2023/12/08 10:10:56;;;;;;;138.05;36.20;;;7.90;99.90;;;;;;5010933;28;20030;-70
2023/12/08 10:13:21;;;;;;;121.50;35.22;;;7.80;99.90;;;;;;5009146;28;20105;-70
2023/12/08 10:15:47;;;;;;;133.52;37.67;;;7.90;99.90;;;;;;5012709;28;20372;-70
2023/12/08 10:18:24;;;;;;;136.60;36.45;;;8.00;99.90;;;;;;4988956;28;20029;-70
2023/12/08 10:20:50;;;;;;;128.20;35.83;;;7.90;99.90;;;;;;5011549;28;20024;-71
2023/12/08 10:23:22;;;;;;;142.43;38.00;;;8.00;99.90;;;;;;5008682;28;20041;-70
2023/12/08 10:25:48;;;;;;;141.25;38.53;;;8.00;99.90;;;;;;4992315;28;20508;-70
2023/12/08 10:28:14;;;;;;;135.35;39.58;;;8.10;99.90;;;;;;5008053;28;20290;-71
2023/12/08 10:30:51;;;;;;;157.32;39.65;;;8.10;99.90;;;;;;5011601;28;20521;-71
2023/12/08 10:33:21;;;;;;;123.70;36.05;;;8.20;99.90;;;;;;5009666;28;20025;-78
2023/12/08 10:35:47;;;;;;;160.55;40.50;;;8.30;99.90;;;;;;5008693;28;20537;-72
2023/12/08 10:38:14;;;;;;;144.73;36.25;;;8.30;99.90;;;;;;5010473;28;20515;-72
2023/12/08 10:40:50;;;;;;;146.48;37.72;;;8.30;99.90;;;;;;5010347;28;20037;-69
2023/12/08 10:43:22;;;;;;;161.93;40.17;;;8.40;99.90;;;;;;5012119;28;20075;-77
2023/12/08 10:45:52;;;;;;;162.15;42.13;;;8.40;99.90;;;;;;5008844;28;20045;-76
2023/12/08 10:48:22;;;;;;;161.75;40.72;;;8.40;99.90;;;;;;5007928;28;20471;-70
2023/12/08 10:50:52;;;;;;;155.10;39.85;;;8.50;99.90;;;;;;5007097;28;20085;-73
2023/12/08 10:53:19;;;;;;;153.32;37.05;;;8.40;99.90;;;;;;5006060;28;20037;-71
2023/12/08 10:56:03;;;;;;;157.63;37.53;;;8.40;99.90;;;;;;5009117;28;20022;-73
2023/12/08 10:58:32;;;;;;;173.20;39.17;;;8.40;99.90;;;;;;4991703;28;20116;-71
2023/12/08 11:01:00;;;;;;;157.48;39.50;;;8.50;99.90;;;;;;4980775;28;20018;-71
2023/12/08 11:03:32;;;;;;;161.95;39.78;;;8.50;99.90;;;;;;4999114;28;20061;-73
2023/12/08 11:06:06;;;;;;;177.65;40.03;;;8.60;99.90;;;;;;4996300;28;20033;-72
2023/12/08 11:08:34;;;;;;;173.55;40.22;;;8.60;99.90;;;;;;4998223;28;20036;-74
2023/12/08 11:11:03;;;;;;;156.32;39.28;;;8.60;99.90;;;;;;4999404;28;20045;-75
2023/12/08 11:13:33;;;;;;;193.18;42.50;;;8.70;99.90;;;;;;4995968;28;22257;-71
2023/12/08 11:16:26;;;;;;;184.27;42.30;;;8.60;99.90;;;;;;4985526;28;20030;-73
2023/12/08 11:18:52;;;;;;;184.80;42.60;;;8.70;99.90;;;;;;4978779;28;20050;-72
2023/12/08 11:21:18;;;;;;;201.77;45.70;;;8.70;99.90;;;;;;4998322;28;20109;-69
2023/12/08 11:23:54;;;;;;;165.60;39.83;;;8.70;99.90;;;;;;4999392;28;20112;-69
2023/12/08 11:26:47;;;;;;;159.82;40.42;;;8.80;99.90;;;;;;4995280;28;20037;-70
2023/12/08 11:29:30;;;;;;;158.67;38.90;;;8.80;99.90;;;;;;5000487;28;20026;-76
2023/12/08 11:31:59;;;;;;;170.90;41.83;;;8.80;99.90;;;;;;4997913;28;20350;-71
2023/12/08 11:34:42;;;;;;;167.02;41.45;;;8.90;99.90;;;;;;4999784;28;20706;-71
2023/12/08 11:37:08;;;;;;;;;;;8.90;99.90;;;;;;5000332;28;20037;-71
2023/12/08 11:39:34;;;;;;;163.90;41.00;;;8.90;99.90;;;;;;5001097;28;19914;-71
2023/12/08 11:42:03;;;;;;;186.00;42.35;;;8.90;99.90;;;;;;5000343;28;20105;-69
2023/12/08 11:44:32;;;;;;;191.93;44.88;;;8.90;99.90;;;;;;4999796;28;20022;-69
2023/12/08 11:47:00;;;;;;;170.85;42.47;;;8.90;99.90;;;;;;5000069;28;20068;-69
2023/12/08 11:49:26;;;;;;;176.68;44.53;;;8.90;99.90;;;;;;4997916;28;20038;-69
2023/12/08 11:52:09;;;;;;;174.52;43.03;;;9.00;99.90;;;;;;4999626;28;20026;-69
2023/12/08 11:55:05;;;;;;;184.40;44.63;;;9.00;99.90;;;;;;4999746;28;20104;-69
2023/12/08 11:57:33;;;;;;;166.70;42.88;;;9.00;99.90;;;;;;4988921;28;20968;-70
2023/12/08 12:00:00;;;;;;;179.63;45.58;;;9.00;99.90;;;;;;4997340;28;20080;-72
2023/12/08 12:02:28;;;;;;;164.55;42.25;;;9.00;99.90;;;;;;4996940;28;20018;-70
2023/12/08 12:04:55;;;;;;;143.27;40.20;;;9.10;99.90;;;;;;5002525;28;20037;-70
2023/12/08 12:07:21;;;;;;;159.77;39.30;;;9.10;99.90;;;;;;4999415;28;20022;-70
2023/12/08 12:09:50;;;;;;;151.13;41.65;;;9.20;99.90;;;;;;4999894;28;20037;-70
2023/12/08 12:12:37;;;;;;;149.13;41.70;;;9.20;99.90;;;;;;4995281;28;20068;-69
2023/12/08 12:15:04;;;;;;;150.50;39.35;;;9.20;99.90;;;;;;5000086;28;20603;-70
2023/12/08 12:17:30;;;;;;;132.75;37.33;;;9.30;99.90;;;;;;4998549;28;20025;-76
2023/12/08 12:19:56;;;;;;;139.25;37.72;;;9.30;99.90;;;;;;4996912;28;20374;-71
2023/12/08 12:22:22;;;;;;;131.68;38.28;;;9.30;99.90;;;;;;4999776;28;20058;-71
2023/12/08 12:24:48;;;;;;;149.98;38.08;;;9.40;99.90;;;;;;4998594;28;20025;-75
2023/12/08 12:27:14;;;;;;;128.00;37.33;;;9.40;99.90;;;;;;4977016;28;20525;-71
2023/12/08 12:29:44;;;;;;;134.52;36.78;;;9.50;99.90;;;;;;4993159;28;20031;-71
2023/12/08 12:32:10;;;;;;;139.55;36.03;;;9.50;99.90;;;;;;4999912;28;20069;-69